createdAt,value
2017-02-18T00:01:11.910Z,0
2017-02-18T00:02:25.655Z,0
2017-02-18T00:03:38.825Z,0
2017-02-18T00:04:52.561Z,0
2017-02-18T00:06:06.245Z,0
2017-02-18T00:07:19.913Z,0
2017-02-18T00:08:33.647Z,0
2017-02-18T00:09:47.359Z,0
2017-02-18T00:11:01.086Z,0
2017-02-18T00:12:14.767Z,0
2017-02-18T00:13:28.486Z,0
2017-02-18T00:14:42.233Z,0
2017-02-18T00:15:55.974Z,0
2017-02-18T00:17:09.045Z,0
2017-02-18T00:18:22.770Z,0
2017-02-18T00:19:36.505Z,0
2017-02-18T00:20:50.230Z,0
2017-02-18T00:22:03.926Z,0
2017-02-18T00:23:17.679Z,0
2017-02-18T00:24:31.382Z,0
2017-02-18T00:25:45.083Z,0
2017-02-18T00:26:58.811Z,0
2017-02-18T00:28:12.538Z,0
2017-02-18T00:29:26.275Z,0
2017-02-18T00:30:39.991Z,0
2017-02-18T00:31:53.687Z,0
2017-02-18T00:33:07.417Z,0
2017-02-18T00:34:21.132Z,0
2017-02-18T00:35:34.830Z,0
2017-02-18T00:36:48.575Z,0
2017-02-18T00:38:01.689Z,0
2017-02-18T00:39:15.439Z,0
2017-02-18T00:40:29.177Z,0
2017-02-18T00:41:42.882Z,0
2017-02-18T00:42:56.618Z,0
2017-02-18T00:44:09.734Z,0
2017-02-18T00:45:22.819Z,0
2017-02-18T00:46:35.973Z,0
2017-02-18T00:47:49.669Z,0
2017-02-18T00:49:03.407Z,0
2017-02-18T00:50:17.111Z,0
2017-02-18T00:51:30.800Z,0
2017-02-18T00:52:44.562Z,0
2017-02-18T00:53:58.292Z,0
2017-02-18T00:55:12.013Z,0
2017-02-18T00:56:25.767Z,0
2017-02-18T00:57:39.473Z,0
2017-02-18T00:58:53.194Z,0
2017-02-18T01:00:06.900Z,0
2017-02-18T01:01:20.012Z,0
2017-02-18T01:02:33.103Z,0
2017-02-18T01:03:46.800Z,0
2017-02-18T01:05:00.512Z,0
2017-02-18T01:06:13.636Z,0
2017-02-18T01:07:27.329Z,0
2017-02-18T01:08:41.093Z,0
2017-02-18T01:09:54.807Z,0
2017-02-18T01:11:08.549Z,0
2017-02-18T01:12:22.258Z,0
2017-02-18T01:13:35.964Z,0
2017-02-18T01:14:49.681Z,0
2017-02-18T01:16:03.404Z,0
2017-02-18T01:17:16.492Z,0
2017-02-18T01:18:30.187Z,0
2017-02-18T01:19:43.886Z,0
2017-02-18T01:20:57.592Z,0
2017-02-18T01:22:11.339Z,0
2017-02-18T01:23:25.093Z,0
2017-02-18T01:24:38.839Z,0
2017-02-18T01:25:52.532Z,0
2017-02-18T01:27:06.236Z,0
2017-02-18T01:28:19.962Z,0
2017-02-18T01:29:33.714Z,0
2017-02-18T01:30:46.842Z,0
2017-02-18T01:32:00.486Z,0
2017-02-18T01:33:13.608Z,0
2017-02-18T01:34:27.327Z,0
2017-02-18T01:35:41.090Z,0
2017-02-18T01:36:54.261Z,0
2017-02-18T01:38:08.024Z,0
2017-02-18T01:39:21.739Z,0
2017-02-18T01:40:35.456Z,0
2017-02-18T01:41:49.147Z,0
2017-02-18T01:43:03.162Z,0
2017-02-18T01:44:16.861Z,0
2017-02-18T01:45:30.571Z,0
2017-02-18T01:46:44.296Z,0
2017-02-18T01:47:58.011Z,0
2017-02-18T01:49:11.776Z,0
2017-02-18T01:50:25.519Z,0
2017-02-18T01:51:39.249Z,0
2017-02-18T01:52:52.973Z,0
2017-02-18T01:54:06.691Z,0
2017-02-18T01:55:20.432Z,0
2017-02-18T01:56:34.193Z,0
2017-02-18T01:57:47.928Z,0
2017-02-18T01:59:01.705Z,0
2017-02-18T02:00:14.253Z,0
2017-02-18T02:01:27.959Z,0
2017-02-18T02:02:41.783Z,0
2017-02-18T02:03:55.489Z,0
2017-02-18T02:05:09.191Z,0
2017-02-18T02:06:22.891Z,0
2017-02-18T02:07:36.640Z,0
2017-02-18T02:08:50.384Z,0
2017-02-18T02:10:04.095Z,0
2017-02-18T02:11:17.822Z,0
2017-02-18T02:12:31.590Z,0
2017-02-18T02:13:44.704Z,0
2017-02-18T02:14:57.801Z,0
2017-02-18T02:16:11.547Z,0
2017-02-18T02:17:24.645Z,0
2017-02-18T02:18:38.367Z,0
2017-02-18T02:19:51.509Z,0
2017-02-18T02:21:05.171Z,0
2017-02-18T02:22:18.276Z,0
2017-02-18T02:23:32.043Z,0
2017-02-18T02:24:45.745Z,0
2017-02-18T02:25:59.481Z,0
2017-02-18T02:27:13.198Z,0
2017-02-18T02:28:26.938Z,0
2017-02-18T02:29:40.680Z,0
2017-02-18T02:30:53.788Z,0
2017-02-18T02:32:07.503Z,0
2017-02-18T02:33:21.201Z,0
2017-02-18T02:34:34.905Z,0
2017-02-18T02:35:48.634Z,0
2017-02-18T02:37:02.374Z,0
2017-02-18T02:38:14.886Z,0
2017-02-18T02:39:28.584Z,0
2017-02-18T02:40:42.321Z,0
2017-02-18T02:41:56.071Z,0
2017-02-18T02:43:09.819Z,0
2017-02-18T02:44:23.531Z,0
2017-02-18T02:45:37.224Z,0
2017-02-18T02:46:50.933Z,0
2017-02-18T02:48:04.667Z,0
2017-02-18T02:49:18.389Z,0
2017-02-18T02:50:31.481Z,0
2017-02-18T02:51:45.196Z,0
2017-02-18T02:52:58.308Z,0
2017-02-18T02:54:12.016Z,0
2017-02-18T02:55:25.708Z,0
2017-02-18T02:56:39.445Z,0
2017-02-18T02:57:53.197Z,0
2017-02-18T02:59:06.921Z,0
2017-02-18T03:00:20.620Z,0
2017-02-18T03:01:34.355Z,0
2017-02-18T03:02:48.049Z,0
2017-02-18T03:04:01.797Z,0
2017-02-18T03:05:15.520Z,0
2017-02-18T03:06:28.666Z,0
2017-02-18T03:07:42.401Z,0
2017-02-18T03:08:55.541Z,0
2017-02-18T03:10:09.275Z,0
2017-02-18T03:11:23.025Z,0
2017-02-18T03:12:36.708Z,0
2017-02-18T03:13:50.397Z,0
2017-02-18T03:15:04.090Z,0
2017-02-18T03:16:17.204Z,0
2017-02-18T03:17:30.937Z,0
2017-02-18T03:18:44.689Z,0
2017-02-18T03:19:58.465Z,0
2017-02-18T03:21:12.170Z,0
2017-02-18T03:22:25.912Z,0
2017-02-18T03:23:39.605Z,0
2017-02-18T03:24:52.714Z,0
2017-02-18T03:26:06.434Z,0
2017-02-18T03:27:19.633Z,0
2017-02-18T03:28:33.371Z,0
2017-02-18T03:29:47.098Z,0
2017-02-18T03:31:00.799Z,0
2017-02-18T03:32:13.908Z,0
2017-02-18T03:33:27.583Z,0
2017-02-18T03:34:41.259Z,0
2017-02-18T03:35:54.369Z,0
2017-02-18T03:37:08.091Z,0
2017-02-18T03:38:21.174Z,0
2017-02-18T03:39:34.900Z,0
2017-02-18T03:40:48.041Z,0
2017-02-18T03:42:01.796Z,0
2017-02-18T03:43:15.544Z,0
2017-02-18T03:44:28.665Z,0
2017-02-18T03:45:42.376Z,0
2017-02-18T03:46:55.488Z,0
2017-02-18T03:48:09.199Z,0
2017-02-18T03:49:22.927Z,0
2017-02-18T03:50:36.660Z,0
2017-02-18T03:51:50.375Z,0
2017-02-18T03:53:04.083Z,0
2017-02-18T03:54:17.226Z,0
2017-02-18T03:55:30.948Z,0
2017-02-18T03:56:44.699Z,0
2017-02-18T03:57:58.406Z,0
2017-02-18T03:59:12.122Z,0
2017-02-18T04:00:25.858Z,0
2017-02-18T04:01:39.574Z,0
2017-02-18T04:02:53.289Z,0
2017-02-18T04:04:06.990Z,0
2017-02-18T04:05:20.128Z,0
2017-02-18T04:06:33.845Z,0
2017-02-18T04:07:47.622Z,0
2017-02-18T04:09:01.307Z,0
2017-02-18T04:10:15.011Z,0
2017-02-18T04:11:28.718Z,0
2017-02-18T04:12:42.445Z,0
2017-02-18T04:13:55.528Z,0
2017-02-18T04:15:09.209Z,0
2017-02-18T04:16:22.906Z,0
2017-02-18T04:17:36.599Z,0
2017-02-18T04:18:50.335Z,0
2017-02-18T04:20:03.456Z,0
2017-02-18T04:21:16.569Z,0
2017-02-18T04:22:30.284Z,0
2017-02-18T04:23:44.042Z,0
2017-02-18T04:24:57.763Z,0
2017-02-18T04:26:10.313Z,0
2017-02-18T04:27:24.069Z,0
2017-02-18T04:28:37.783Z,0
2017-02-18T04:29:51.487Z,0
2017-02-18T04:31:05.204Z,0
2017-02-18T04:32:18.326Z,0
2017-02-18T04:33:32.050Z,0
2017-02-18T04:34:45.762Z,0
2017-02-18T04:35:58.982Z,0
2017-02-18T04:37:12.130Z,0
2017-02-18T04:38:25.844Z,0
2017-02-18T04:39:39.551Z,0
2017-02-18T04:40:52.660Z,0
2017-02-18T04:42:05.790Z,0
2017-02-18T04:43:19.512Z,0
2017-02-18T04:44:33.255Z,0
2017-02-18T04:45:46.998Z,0
2017-02-18T04:47:00.121Z,0
2017-02-18T04:48:13.303Z,0
2017-02-18T04:49:27.016Z,0
2017-02-18T04:50:40.738Z,0
2017-02-18T04:51:54.426Z,0
2017-02-18T04:53:08.162Z,0
2017-02-18T04:54:21.904Z,0
2017-02-18T04:55:35.046Z,0
2017-02-18T04:56:48.796Z,0
2017-02-18T04:58:02.520Z,0
2017-02-18T04:59:16.220Z,0
2017-02-18T05:00:29.921Z,0
2017-02-18T05:01:43.635Z,0
2017-02-18T05:02:57.391Z,0
2017-02-18T05:04:11.073Z,0
2017-02-18T05:05:24.803Z,0
2017-02-18T05:06:38.597Z,0
2017-02-18T05:07:52.310Z,0
2017-02-18T05:09:06.035Z,0
2017-02-18T05:10:19.801Z,0
2017-02-18T05:11:33.491Z,0
2017-02-18T05:12:47.185Z,0
2017-02-18T05:14:00.892Z,0
2017-02-18T05:15:14.650Z,0
2017-02-18T05:16:28.395Z,0
2017-02-18T05:17:42.125Z,0
2017-02-18T05:18:55.874Z,0
2017-02-18T05:20:08.982Z,0
2017-02-18T05:21:22.732Z,0
2017-02-18T05:22:36.420Z,0
2017-02-18T05:23:50.150Z,0
2017-02-18T05:25:03.257Z,0
2017-02-18T05:26:16.370Z,0
2017-02-18T05:27:30.127Z,0
2017-02-18T05:28:43.841Z,0
2017-02-18T05:29:56.995Z,0
2017-02-18T05:31:10.143Z,0
2017-02-18T05:32:23.322Z,0
2017-02-18T05:33:37.059Z,0
2017-02-18T05:34:50.780Z,0
2017-02-18T05:36:03.880Z,0
2017-02-18T05:37:17.550Z,0
2017-02-18T05:38:31.315Z,0
2017-02-18T05:39:45.016Z,0
2017-02-18T05:40:58.764Z,0
2017-02-18T05:42:11.855Z,0
2017-02-18T05:43:25.557Z,0
2017-02-18T05:44:39.310Z,0
2017-02-18T05:45:52.462Z,0
2017-02-18T05:47:06.222Z,0
2017-02-18T05:48:19.341Z,0
2017-02-18T05:49:32.471Z,0
2017-02-18T05:50:46.171Z,0
2017-02-18T05:51:59.867Z,0
2017-02-18T05:53:13.598Z,0
2017-02-18T05:54:26.714Z,0
2017-02-18T05:55:40.467Z,0
2017-02-18T05:56:54.185Z,0
2017-02-18T05:58:07.287Z,0
2017-02-18T05:59:21.031Z,0
2017-02-18T06:00:34.794Z,0
2017-02-18T06:01:47.893Z,0
2017-02-18T06:03:01.609Z,0
2017-02-18T06:04:14.772Z,0
2017-02-18T06:05:28.473Z,0
2017-02-18T06:06:42.172Z,0
2017-02-18T06:07:55.905Z,0
2017-02-18T06:09:09.590Z,0
2017-02-18T06:10:22.696Z,0
2017-02-18T06:11:36.412Z,0
2017-02-18T06:12:50.154Z,0
2017-02-18T06:14:03.244Z,0
2017-02-18T06:15:17.017Z,0
2017-02-18T06:16:30.688Z,0
2017-02-18T06:17:44.404Z,0
2017-02-18T06:18:58.112Z,0
2017-02-18T06:20:11.867Z,0
2017-02-18T06:21:25.620Z,0
2017-02-18T06:22:39.343Z,0
2017-02-18T06:23:53.073Z,0
2017-02-18T06:25:06.788Z,0
2017-02-18T06:26:20.518Z,0
2017-02-18T06:27:34.243Z,0
2017-02-18T06:28:47.988Z,0
2017-02-18T06:30:01.669Z,0
2017-02-18T06:31:14.850Z,0
2017-02-18T06:32:28.574Z,0
2017-02-18T06:33:42.317Z,0
2017-02-18T06:34:56.352Z,0
2017-02-18T06:36:10.048Z,0
2017-02-18T06:37:23.771Z,0
2017-02-18T06:38:37.503Z,0
2017-02-18T06:39:51.213Z,0
2017-02-18T06:41:04.943Z,0
2017-02-18T06:42:18.053Z,0
2017-02-18T06:43:31.785Z,0
2017-02-18T06:44:45.543Z,0
2017-02-18T06:45:59.238Z,0
2017-02-18T06:47:12.935Z,0
2017-02-18T06:48:26.083Z,0
2017-02-18T06:49:39.812Z,0
2017-02-18T06:50:53.550Z,0
2017-02-18T06:52:07.260Z,0
2017-02-18T06:53:20.949Z,0
2017-02-18T06:54:34.030Z,0
2017-02-18T06:55:47.710Z,0
2017-02-18T06:57:00.829Z,0
2017-02-18T06:58:14.540Z,0
2017-02-18T06:59:28.256Z,0
2017-02-18T07:00:41.427Z,0
2017-02-18T07:01:55.202Z,0
2017-02-18T07:03:08.907Z,0
2017-02-18T07:04:22.629Z,0
2017-02-18T07:05:35.733Z,0
2017-02-18T07:06:49.445Z,0
2017-02-18T07:08:02.707Z,0
2017-02-18T07:09:16.421Z,0
2017-02-18T07:10:29.528Z,0
2017-02-18T07:11:43.302Z,0
2017-02-18T07:12:57.049Z,0
2017-02-18T07:14:10.842Z,0
2017-02-18T07:15:24.622Z,0
2017-02-18T07:16:38.306Z,0
2017-02-18T07:17:51.401Z,0
2017-02-18T07:19:05.113Z,0
2017-02-18T07:20:18.207Z,0
2017-02-18T07:21:31.982Z,0
2017-02-18T07:22:45.701Z,0
2017-02-18T07:23:58.851Z,0
2017-02-18T07:25:12.572Z,0
2017-02-18T07:26:26.277Z,0
2017-02-18T07:27:40.031Z,0
2017-02-18T07:28:52.559Z,0
2017-02-18T07:30:06.263Z,0
2017-02-18T07:31:19.373Z,0
2017-02-18T07:32:33.095Z,0
2017-02-18T07:33:46.845Z,0
2017-02-18T07:34:59.989Z,0
2017-02-18T07:36:13.698Z,0
2017-02-18T07:37:27.393Z,0
2017-02-18T07:38:41.083Z,0
2017-02-18T07:39:54.786Z,0
2017-02-18T07:41:08.529Z,0
2017-02-18T07:42:22.233Z,0
2017-02-18T07:43:35.943Z,0
2017-02-18T07:44:49.675Z,0
2017-02-18T07:46:03.399Z,0
2017-02-18T07:47:17.355Z,0
2017-02-18T07:48:31.073Z,0
2017-02-18T07:49:44.794Z,0
2017-02-18T07:50:58.523Z,0
2017-02-18T07:52:12.208Z,0
2017-02-18T07:53:25.328Z,0
2017-02-18T07:54:39.040Z,0
2017-02-18T07:55:52.704Z,0
2017-02-18T07:57:05.841Z,0
2017-02-18T07:58:18.965Z,0
2017-02-18T07:59:32.092Z,0
2017-02-18T08:00:45.804Z,0
2017-02-18T08:01:59.535Z,0
2017-02-18T08:03:13.270Z,0
2017-02-18T08:04:26.979Z,0
2017-02-18T08:05:40.710Z,0
2017-02-18T08:06:54.472Z,0
2017-02-18T08:08:07.603Z,0
2017-02-18T08:09:20.698Z,0
2017-02-18T08:10:33.856Z,0
2017-02-18T08:11:47.023Z,0
2017-02-18T08:13:00.731Z,0
2017-02-18T08:14:13.844Z,0
2017-02-18T08:15:27.551Z,0
2017-02-18T08:16:41.274Z,0
2017-02-18T08:17:54.986Z,0
2017-02-18T08:19:08.665Z,0
2017-02-18T08:20:22.384Z,0
2017-02-18T08:21:36.097Z,0
2017-02-18T08:22:49.197Z,0
2017-02-18T08:24:02.926Z,0
2017-02-18T08:25:16.711Z,0
2017-02-18T08:26:30.436Z,0
2017-02-18T08:27:44.168Z,0
2017-02-18T08:28:57.310Z,4
2017-02-18T08:30:10.437Z,0
2017-02-18T08:31:24.155Z,4
2017-02-18T08:32:37.906Z,4
2017-02-18T08:33:51.573Z,4
2017-02-18T08:35:04.680Z,8
2017-02-18T08:36:17.769Z,12
2017-02-18T08:37:31.487Z,16
2017-02-18T08:38:45.211Z,20
2017-02-18T08:39:58.898Z,24
2017-02-18T08:41:12.679Z,32
2017-02-18T08:42:26.412Z,40
2017-02-18T08:43:40.106Z,56
2017-02-18T08:44:53.221Z,76
2017-02-18T08:46:05.726Z,104
2017-02-18T08:47:19.479Z,136
2017-02-18T08:48:32.618Z,180
2017-02-18T08:49:46.334Z,224
2017-02-18T08:50:59.472Z,284
2017-02-18T08:52:12.643Z,348
2017-02-18T08:53:26.394Z,424
2017-02-18T08:54:40.104Z,512
2017-02-18T08:55:53.855Z,604
2017-02-18T08:57:06.347Z,704
2017-02-18T08:58:20.038Z,824
2017-02-18T08:59:33.785Z,944
2017-02-18T09:00:47.610Z,1072
2017-02-18T09:02:01.319Z,1212
2017-02-18T09:03:15.014Z,1360
2017-02-18T09:04:28.785Z,1520
2017-02-18T09:05:41.990Z,1688
2017-02-18T09:06:55.734Z,1872
2017-02-18T09:08:08.859Z,2076
2017-02-18T09:09:21.398Z,2292
2017-02-18T09:10:35.157Z,2548
2017-02-18T09:11:48.860Z,2820
2017-02-18T09:13:02.538Z,3132
2017-02-18T09:14:16.251Z,3444
2017-02-18T09:15:29.946Z,3724
2017-02-18T09:16:43.146Z,4040
2017-02-18T09:17:56.865Z,4440
2017-02-18T09:19:09.977Z,4808
2017-02-18T09:20:23.135Z,5272
2017-02-18T09:21:36.251Z,5672
2017-02-18T09:22:50.027Z,6020
2017-02-18T09:24:03.707Z,6396
2017-02-18T09:25:16.843Z,6768
2017-02-18T09:26:30.584Z,7064
2017-02-18T09:27:44.308Z,7456
2017-02-18T09:28:58.012Z,7972
2017-02-18T09:30:11.727Z,8144
2017-02-18T09:31:25.455Z,8584
2017-02-18T09:32:39.178Z,8960
2017-02-18T09:33:52.915Z,9876
2017-02-18T09:35:06.057Z,11236
2017-02-18T09:36:19.780Z,11752
2017-02-18T09:37:33.492Z,12468
2017-02-18T09:38:47.221Z,12456
2017-02-18T09:40:00.910Z,13144
2017-02-18T09:41:14.005Z,14272
2017-02-18T09:42:27.726Z,14976
2017-02-18T09:43:41.455Z,15200
2017-02-18T09:44:55.140Z,15488
2017-02-18T09:46:08.850Z,15712
2017-02-18T09:47:22.590Z,17024
2017-02-18T09:48:36.314Z,17696
2017-02-18T09:49:50.054Z,18432
2017-02-18T09:51:03.762Z,19168
2017-02-18T09:52:16.905Z,19520
2017-02-18T09:53:30.646Z,20288
2017-02-18T09:54:44.364Z,20320
2017-02-18T09:55:58.101Z,21248
2017-02-18T09:57:11.860Z,22592
2017-02-18T09:58:25.550Z,23168
2017-02-18T09:59:39.278Z,22624
2017-02-18T10:00:53.024Z,24032
2017-02-18T10:02:06.704Z,24800
2017-02-18T10:03:19.191Z,26528
2017-02-18T10:04:32.889Z,27296
2017-02-18T10:05:46.618Z,28480
2017-02-18T10:07:00.377Z,28672
2017-02-18T10:08:14.141Z,30496
2017-02-18T10:09:27.901Z,31776
2017-02-18T10:10:41.641Z,32000
2017-02-18T10:11:55.410Z,32864
2017-02-18T10:13:08.512Z,32256
2017-02-18T10:14:22.225Z,33728
2017-02-18T10:15:35.949Z,36384
2017-02-18T10:16:49.850Z,36064
2017-02-18T10:18:03.583Z,36384
2017-02-18T10:19:17.324Z,38880
2017-02-18T10:20:31.047Z,40224
2017-02-18T10:21:44.751Z,40064
2017-02-18T10:22:57.861Z,41568
2017-02-18T10:24:10.945Z,43424
2017-02-18T10:25:24.686Z,44352
2017-02-18T10:26:38.417Z,43392
2017-02-18T10:27:52.196Z,44384
2017-02-18T10:29:05.361Z,46176
2017-02-18T10:30:18.483Z,46880
2017-02-18T10:31:32.199Z,48704
2017-02-18T10:32:45.883Z,49376
2017-02-18T10:33:59.615Z,50272
2017-02-18T10:35:13.444Z,49184
2017-02-18T10:36:27.155Z,52064
2017-02-18T10:37:40.872Z,50368
2017-02-18T10:38:53.953Z,52352
2017-02-18T10:40:07.643Z,52832
2017-02-18T10:41:20.188Z,57280
2017-02-18T10:42:33.969Z,54592
2017-02-18T10:43:47.685Z,57024
2017-02-18T10:45:01.414Z,54912
2017-02-18T10:46:15.120Z,58208
2017-02-18T10:47:28.814Z,58560
2017-02-18T10:48:42.552Z,58080
2017-02-18T10:49:55.705Z,54656
2017-02-18T10:51:09.408Z,61984
2017-02-18T10:52:22.519Z,64096
2017-02-18T10:53:36.261Z,64576
2017-02-18T10:54:50.019Z,65696
2017-02-18T10:56:03.778Z,67360
2017-02-18T10:57:16.906Z,65504
2017-02-18T10:58:30.623Z,65056
2017-02-18T10:59:44.407Z,65536
2017-02-18T11:00:58.124Z,65568
2017-02-18T11:02:11.819Z,67840
2017-02-18T11:03:25.520Z,69888
2017-02-18T11:04:39.249Z,70720
2017-02-18T11:05:52.983Z,69472
2017-02-18T11:07:06.666Z,71456
2017-02-18T11:08:20.341Z,71584
2017-02-18T11:09:34.040Z,73344
2017-02-18T11:10:47.223Z,75392
2017-02-18T11:12:00.921Z,75552
2017-02-18T11:13:14.642Z,64512
2017-02-18T11:14:28.357Z,61824
2017-02-18T11:15:42.056Z,64992
2017-02-18T11:16:55.766Z,60736
2017-02-18T11:18:09.505Z,71168
2017-02-18T11:19:23.217Z,78944
2017-02-18T11:20:36.968Z,73600
2017-02-18T11:21:50.097Z,65632
2017-02-18T11:23:03.803Z,61568
2017-02-18T11:24:17.558Z,68352
2017-02-18T11:25:31.277Z,74752
2017-02-18T11:26:45.024Z,77120
2017-02-18T11:27:58.799Z,83456
2017-02-18T11:29:12.545Z,83712
2017-02-18T11:30:26.252Z,84832
2017-02-18T11:31:40.003Z,83616
2017-02-18T11:32:52.547Z,85824
2017-02-18T11:34:06.279Z,84128
2017-02-18T11:35:20.010Z,82592
2017-02-18T11:36:33.754Z,81344
2017-02-18T11:37:47.521Z,78400
2017-02-18T11:39:01.234Z,74144
2017-02-18T11:40:14.339Z,78752
2017-02-18T11:41:28.067Z,78176
2017-02-18T11:42:41.843Z,86368
2017-02-18T11:43:55.595Z,79744
2017-02-18T11:45:09.344Z,72992
2017-02-18T11:46:23.110Z,69824
2017-02-18T11:47:35.634Z,73440
2017-02-18T11:48:49.332Z,82656
2017-02-18T11:50:03.045Z,67136
2017-02-18T11:51:16.188Z,51744
2017-02-18T11:52:29.882Z,50208
2017-02-18T11:53:43.584Z,48512
2017-02-18T11:54:57.270Z,50848
2017-02-18T11:56:11.038Z,55968
2017-02-18T11:57:24.813Z,54592
2017-02-18T11:58:37.924Z,58848
2017-02-18T11:59:51.031Z,72000
2017-02-18T12:01:04.782Z,71456
2017-02-18T12:02:17.892Z,73952
2017-02-18T12:03:31.004Z,89376
2017-02-18T12:04:44.748Z,97728
2017-02-18T12:05:58.478Z,98048
2017-02-18T12:07:12.209Z,103552
2017-02-18T12:08:25.962Z,106624
2017-02-18T12:09:39.738Z,104224
2017-02-18T12:10:53.439Z,96224
2017-02-18T12:12:07.143Z,103264
2017-02-18T12:13:20.275Z,110400
2017-02-18T12:14:33.982Z,105024
2017-02-18T12:15:47.731Z,95040
2017-02-18T12:17:01.423Z,95488
2017-02-18T12:18:14.599Z,111136
2017-02-18T12:19:28.327Z,112096
2017-02-18T12:20:42.061Z,112928
2017-02-18T12:21:55.760Z,114272
2017-02-18T12:23:08.875Z,110240
2017-02-18T12:24:22.613Z,102912
2017-02-18T12:25:36.344Z,96832
2017-02-18T12:26:50.072Z,98304
2017-02-18T12:28:03.754Z,101472
2017-02-18T12:29:17.504Z,98112
2017-02-18T12:30:31.261Z,98080
2017-02-18T12:31:44.984Z,90816
2017-02-18T12:32:58.722Z,95968
2017-02-18T12:34:11.844Z,100384
2017-02-18T12:35:25.575Z,102176
2017-02-18T12:36:39.299Z,101408
2017-02-18T12:37:53.053Z,107072
2017-02-18T12:39:06.833Z,106304
2017-02-18T12:40:20.572Z,103744
2017-02-18T12:41:34.336Z,102560
2017-02-18T12:42:48.078Z,104672
2017-02-18T12:44:01.808Z,102624
2017-02-18T12:45:15.517Z,102272
2017-02-18T12:46:29.241Z,104160
2017-02-18T12:47:42.988Z,101920
2017-02-18T12:48:56.745Z,97792
2017-02-18T12:50:10.496Z,96608
2017-02-18T12:51:24.354Z,101472
2017-02-18T12:52:38.056Z,106336
2017-02-18T12:53:51.784Z,109888
2017-02-18T12:55:04.947Z,106592
2017-02-18T12:56:17.520Z,104960
2017-02-18T12:57:31.243Z,102752
2017-02-18T12:58:44.973Z,106112
2017-02-18T12:59:58.695Z,105376
2017-02-18T13:01:12.434Z,106496
2017-02-18T13:02:25.590Z,108864
2017-02-18T13:03:39.360Z,106848
2017-02-18T13:04:53.111Z,111776
2017-02-18T13:06:06.862Z,107616
2017-02-18T13:07:20.597Z,109696
2017-02-18T13:08:33.735Z,111712
2017-02-18T13:09:47.519Z,112000
2017-02-18T13:11:01.256Z,115072
2017-02-18T13:12:15.014Z,112512
2017-02-18T13:13:28.151Z,110464
2017-02-18T13:14:41.864Z,109568
2017-02-18T13:15:55.607Z,109696
2017-02-18T13:17:08.739Z,110144
2017-02-18T13:18:22.494Z,103168
2017-02-18T13:19:36.193Z,105568
2017-02-18T13:20:49.933Z,117120
2017-02-18T13:22:03.105Z,114624
2017-02-18T13:23:15.634Z,98464
2017-02-18T13:24:29.369Z,101664
2017-02-18T13:25:43.084Z,118016
2017-02-18T13:26:56.826Z,124064
2017-02-18T13:28:10.577Z,123776
2017-02-18T13:29:23.687Z,121440
2017-02-18T13:30:37.413Z,120416
2017-02-18T13:31:51.140Z,119648
2017-02-18T13:33:04.889Z,120576
2017-02-18T13:34:18.616Z,107808
2017-02-18T13:35:32.331Z,96160
2017-02-18T13:36:46.054Z,111264
2017-02-18T13:37:59.217Z,120768
2017-02-18T13:39:13.004Z,120000
2017-02-18T13:40:26.753Z,116864
2017-02-18T13:41:40.520Z,119648
2017-02-18T13:42:54.290Z,122592
2017-02-18T13:44:08.017Z,125536
2017-02-18T13:45:21.195Z,124576
2017-02-18T13:46:34.931Z,121120
2017-02-18T13:47:48.656Z,124000
2017-02-18T13:49:02.462Z,128960
2017-02-18T13:50:14.975Z,134816
2017-02-18T13:51:28.147Z,130016
2017-02-18T13:52:41.882Z,117152
2017-02-18T13:53:55.049Z,107232
2017-02-18T13:55:08.235Z,105504
2017-02-18T13:56:21.331Z,111360
2017-02-18T13:57:35.121Z,130592
2017-02-18T13:58:48.863Z,138592
2017-02-18T14:00:02.024Z,136160
2017-02-18T14:01:14.587Z,141600
2017-02-18T14:02:28.359Z,136992
2017-02-18T14:03:42.081Z,135744
2017-02-18T14:04:55.779Z,139136
2017-02-18T14:06:08.892Z,134176
2017-02-18T14:07:22.057Z,131424
2017-02-18T14:08:35.815Z,135680
2017-02-18T14:09:49.549Z,133760
2017-02-18T14:11:03.261Z,131296
2017-02-18T14:12:16.364Z,131008
2017-02-18T14:13:29.500Z,129408
2017-02-18T14:14:43.255Z,126720
2017-02-18T14:15:56.381Z,118880
2017-02-18T14:17:10.124Z,121920
2017-02-18T14:18:23.276Z,120672
2017-02-18T14:19:37.010Z,123264
2017-02-18T14:20:50.752Z,128160
2017-02-18T14:22:04.478Z,126080
2017-02-18T14:23:18.200Z,132512
2017-02-18T14:24:31.922Z,132800
2017-02-18T14:25:45.678Z,131136
2017-02-18T14:26:59.411Z,127200
2017-02-18T14:28:12.545Z,129472
2017-02-18T14:29:25.685Z,127968
2017-02-18T14:30:39.398Z,128672
2017-02-18T14:31:53.137Z,132320
2017-02-18T14:33:06.901Z,126560
2017-02-18T14:34:20.001Z,125088
2017-02-18T14:35:33.714Z,123552
2017-02-18T14:36:47.406Z,123360
2017-02-18T14:38:00.524Z,118496
2017-02-18T14:39:13.670Z,118592
2017-02-18T14:40:27.383Z,129216
2017-02-18T14:41:41.156Z,128096
2017-02-18T14:42:54.874Z,123488
2017-02-18T14:44:08.620Z,119360
2017-02-18T14:45:21.783Z,116096
2017-02-18T14:46:35.524Z,121536
2017-02-18T14:47:49.274Z,126048
2017-02-18T14:49:03.039Z,124224
2017-02-18T14:50:16.202Z,106720
2017-02-18T14:51:29.934Z,96896
2017-02-18T14:52:43.063Z,116704
2017-02-18T14:53:56.814Z,128928
2017-02-18T14:55:10.594Z,127520
2017-02-18T14:56:23.777Z,127648
2017-02-18T14:57:37.540Z,127168
2017-02-18T14:58:50.652Z,122496
2017-02-18T15:00:04.404Z,122656
2017-02-18T15:01:17.569Z,123008
2017-02-18T15:02:31.320Z,127104
2017-02-18T15:03:45.056Z,124832
2017-02-18T15:04:58.819Z,122240
2017-02-18T15:06:12.547Z,119872
2017-02-18T15:07:25.663Z,118208
2017-02-18T15:08:39.381Z,114976
2017-02-18T15:09:53.144Z,118176
2017-02-18T15:11:06.286Z,121088
2017-02-18T15:12:20.022Z,117088
2017-02-18T15:13:33.164Z,115424
2017-02-18T15:14:46.916Z,121824
2017-02-18T15:15:59.457Z,124096
2017-02-18T15:17:13.225Z,123168
2017-02-18T15:18:27.002Z,112448
2017-02-18T15:19:40.755Z,108480
2017-02-18T15:20:53.975Z,122496
2017-02-18T15:22:07.126Z,111936
2017-02-18T15:23:20.886Z,81440
2017-02-18T15:24:34.623Z,86848
2017-02-18T15:25:48.357Z,122976
2017-02-18T15:27:02.105Z,135072
2017-02-18T15:28:15.861Z,130432
2017-02-18T15:29:29.569Z,123136
2017-02-18T15:30:43.364Z,114720
2017-02-18T15:31:56.544Z,115968
2017-02-18T15:33:09.719Z,121856
2017-02-18T15:34:23.424Z,123008
2017-02-18T15:35:37.189Z,121376
2017-02-18T15:36:50.931Z,119136
2017-02-18T15:38:04.675Z,127264
2017-02-18T15:39:17.812Z,125728
2017-02-18T15:40:30.989Z,124672
2017-02-18T15:41:44.697Z,129760
2017-02-18T15:42:58.408Z,128704
2017-02-18T15:44:10.396Z,129024
2017-02-18T15:45:23.514Z,129600
2017-02-18T15:46:37.289Z,127808
2017-02-18T15:47:50.986Z,130432
2017-02-18T15:49:03.569Z,136608
2017-02-18T15:50:16.736Z,129920
2017-02-18T15:51:30.428Z,120640
2017-02-18T15:52:44.120Z,124096
2017-02-18T15:53:57.847Z,123872
2017-02-18T15:55:10.376Z,126272
2017-02-18T15:56:24.100Z,134048
2017-02-18T15:57:37.858Z,134784
2017-02-18T15:58:51.626Z,127776
2017-02-18T16:00:05.336Z,129696
2017-02-18T16:01:18.470Z,130656
2017-02-18T16:02:32.162Z,129120
2017-02-18T16:03:45.920Z,125824
2017-02-18T16:04:59.667Z,124352
2017-02-18T16:06:12.815Z,59424
2017-02-18T16:07:25.968Z,128256
2017-02-18T16:08:39.702Z,124544
2017-02-18T16:09:53.408Z,128160
2017-02-18T16:11:07.115Z,125760
2017-02-18T16:12:20.302Z,119904
2017-02-18T16:13:34.065Z,118816
2017-02-18T16:14:47.787Z,127424
2017-02-18T16:16:01.492Z,133440
2017-02-18T16:17:15.253Z,131616
2017-02-18T16:18:28.384Z,123168
2017-02-18T16:19:41.520Z,100032
2017-02-18T16:20:55.272Z,92352
2017-02-18T16:22:08.446Z,103904
2017-02-18T16:23:22.164Z,112256
2017-02-18T16:24:35.909Z,108672
2017-02-18T16:25:49.656Z,112544
2017-02-18T16:27:03.359Z,115968
2017-02-18T16:28:17.103Z,120480
2017-02-18T16:29:30.834Z,122592
2017-02-18T16:30:43.960Z,114464
2017-02-18T16:31:57.754Z,114848
2017-02-18T16:33:11.471Z,117824
2017-02-18T16:34:25.182Z,122688
2017-02-18T16:35:38.928Z,118080
2017-02-18T16:36:52.063Z,111712
2017-02-18T16:38:05.197Z,109472
2017-02-18T16:39:17.748Z,112608
2017-02-18T16:40:30.890Z,117280
2017-02-18T16:41:44.576Z,117184
2017-02-18T16:42:58.297Z,111968
2017-02-18T16:44:12.055Z,116448
2017-02-18T16:45:25.197Z,112928
2017-02-18T16:46:38.370Z,106656
2017-02-18T16:47:52.131Z,108096
2017-02-18T16:49:05.944Z,113664